Time;durP1;ratioP1;P1;durP2;ratioP2;P2;SDS_P1;SDS_P2;PMS_P1;PMS_P2;Temp;Humidity;BMP_temperature;BMP_pressure;BME280_temperature;BME280_humidity;BME280_pressure;Samples;Min_cycle;Max_cycle;Signal;HPM_P1;HPM_P2
2023/08/23 00:01:34;;;;;;;;;;;;;;;15.70;89.53;101852.03;4908023;29;20065;-72
2023/08/23 00:04:00;;;;;;;13.43;5.72;;;;;;;15.69;89.69;101858.53;4909073;29;19918;-73
2023/08/23 00:06:25;;;;;;;11.65;6.97;;;;;;;15.70;90.17;101849.34;4901516;29;20039;-72
2023/08/23 00:08:51;;;;;;;;;;;;;;;15.72;90.02;101855.28;4907830;29;20035;-73
2023/08/23 00:11:17;;;;;;;10.20;5.97;;;;;;;15.70;89.80;101857.44;4935040;29;19992;-73
2023/08/23 00:13:42;;;;;;;;;;;;;;;15.75;91.09;101852.84;4906132;29;20048;-72
2023/08/23 00:16:09;;;;;;;10.30;5.63;;;;;;;15.71;89.92;101853.66;4908439;29;19919;-72
2023/08/23 00:18:35;;;;;;;;;;;;;;;15.75;91.16;101860.13;4906079;28;20718;-72
2023/08/23 00:21:01;;;;;;;10.30;7.05;;;;;;;15.71;90.56;101853.66;4923013;29;20001;-71
2023/08/23 00:23:27;;;;;;;15.13;8.35;;;;;;;15.71;91.02;101851.75;4940124;29;20080;-72
2023/08/23 00:25:52;;;;;;;;;;;;;;;15.75;91.26;101858.22;4924622;29;20122;-72
2023/08/23 00:28:19;;;;;;;11.10;8.27;;;;;;;15.72;90.73;101847.19;4922477;29;20020;-72
2023/08/23 00:30:50;;;;;;;13.23;6.80;;;;;;;15.74;89.84;101848.50;4924039;29;20027;-73
2023/08/23 00:33:16;;;;;;;12.77;8.38;;;;;;;15.76;90.12;101848.22;4917922;29;20414;-73
2023/08/23 00:35:42;;;;;;;;;;;;;;;15.78;90.53;101848.75;4890040;29;20047;-73
2023/08/23 00:38:08;;;;;;;13.18;6.80;;;;;;;15.75;90.81;101858.22;4936850;29;19923;-73
2023/08/23 00:40:33;;;;;;;12.13;7.70;;;;;;;15.75;90.97;101854.72;4927633;29;20092;-71
2023/08/23 00:42:59;;;;;;;12.15;8.00;;;;;;;15.76;90.64;101845.53;4909441;29;20043;-74
2023/08/23 00:45:26;;;;;;;12.43;8.20;;;;;;;15.79;90.94;101850.41;4924241;29;20532;-72
2023/08/23 00:47:52;;;;;;;10.32;7.88;;;;;;;15.79;90.60;101850.41;4938651;29;20039;-72
2023/08/23 00:50:18;;;;;;;13.15;8.63;;;;;;;15.80;91.25;101846.59;4924326;29;20034;-74
2023/08/23 00:52:43;;;;;;;12.38;8.15;;;;;;;15.82;90.53;101852.53;4937826;29;20035;-71
2023/08/23 00:55:10;;;;;;;12.05;7.35;;;;;;;15.84;90.56;101853.06;4904379;29;20098;-73
2023/08/23 00:57:36;;;;;;;14.55;7.85;;;;;;;15.86;91.00;101861.72;4917596;29;20078;-72
2023/08/23 01:00:05;;;;;;;13.10;8.35;;;;;;;15.88;91.50;101856.03;4915162;29;20059;-74
2023/08/23 01:02:30;;;;;;;10.23;6.97;;;;;;;15.85;91.97;101854.69;4927645;29;20043;-72
2023/08/23 01:04:56;;;;;;;12.35;7.00;;;;;;;15.86;92.23;101867.09;4899851;29;20039;-72
2023/08/23 01:07:33;;;;;;;;;;;;;;;15.86;92.80;101860.91;4896367;29;21002;-72
2023/08/23 01:10:30;;;;;;;11.45;7.20;;;;;;;15.82;92.07;101860.63;4925530;29;19922;-73
2023/08/23 01:13:08;;;;;;;10.57;5.80;;;;;;;15.85;91.29;101862.78;4925167;29;20035;-73
2023/08/23 01:15:35;;;;;;;13.00;6.82;;;;;;;15.86;91.85;101855.50;4920361;29;20048;-71
2023/08/23 01:18:02;;;;;;;13.20;7.28;;;;;;;15.83;91.89;101860.34;4927245;29;20063;-72
2023/08/23 01:20:31;;;;;;;11.00;6.10;;;;;;;15.83;91.99;101864.94;4916285;29;20573;-72
2023/08/23 01:23:16;;;;;;;9.52;6.30;;;;;;;15.83;91.85;101862.25;4913153;29;20039;-72
2023/08/23 01:25:52;;;;;;;10.48;6.35;;;;;;;15.82;91.93;101855.22;4908353;29;20086;-72
2023/08/23 01:28:19;;;;;;;11.98;7.13;;;;;;;15.80;91.92;101852.81;4924245;29;20050;-72
2023/08/23 01:30:47;;;;;;;12.30;7.60;;;;;;;15.82;91.69;101852.53;4912107;29;20039;-71
2023/08/23 01:33:19;;;;;;;13.05;7.63;;;;;;;15.82;91.94;101847.13;4906563;29;20858;-72
2023/08/23 01:36:03;;;;;;;12.68;8.45;;;;;;;15.81;91.67;101840.13;4910732;29;20039;-71
2023/08/23 01:38:31;;;;;;;12.98;7.45;;;;;;;15.77;91.34;101836.34;4909008;28;20046;-73
2023/08/23 01:40:59;;;;;;;12.00;8.50;;;;;;;15.76;90.86;101829.31;4910614;29;20047;-72
2023/08/23 01:43:24;;;;;;;14.32;8.50;;;;;;;15.73;90.78;101830.69;4905783;29;20576;-72
2023/08/23 01:45:50;;;;;;;13.40;7.82;;;;;;;15.70;90.88;101830.44;4903282;29;20143;-72
2023/08/23 01:48:15;;;;;;;14.23;8.02;;;;;;;15.67;90.54;101831.00;4918453;29;20032;-71
2023/08/23 01:50:41;;;;;;;13.93;9.25;;;;;;;15.65;90.97;101830.47;4908765;29;20122;-72
2023/08/23 01:53:07;;;;;;;12.98;8.27;;;;;;;15.65;90.41;101833.19;4926102;29;20668;-72
2023/08/23 01:55:32;;;;;;;;;;;;;;;15.64;91.00;101826.94;4903488;29;20115;-71
2023/08/23 01:57:58;;;;;;;17.88;9.48;;;;;;;15.60;91.10;101830.47;4936855;29;20351;-75
2023/08/23 02:00:24;;;;;;;15.85;10.13;;;;;;;15.61;91.16;101848.28;4928741;29;20062;-72
2023/08/23 02:02:52;;;;;;;13.93;8.50;;;;;;;15.59;91.01;101842.34;4924537;29;20078;-72
2023/08/23 02:05:17;;;;;;;;;;;;;;;15.56;90.63;101832.91;4926378;29;20840;-72
2023/08/23 02:07:45;;;;;;;14.68;9.23;;;;;;;15.52;91.17;101832.66;4897054;29;19922;-70
2023/08/23 02:10:10;;;;;;;;;;;;;;;15.52;91.51;101829.97;4890522;29;20397;-72
2023/08/23 02:12:36;;;;;;;11.65;8.27;;;;;;;15.47;91.44;101829.16;4932791;29;19922;-72
2023/08/23 02:15:02;;;;;;;;;;;;;;;15.47;91.47;101832.66;4928773;29;20042;-72
2023/08/23 02:17:29;;;;;;;11.00;7.18;;;;;;;15.40;91.42;101837.56;4915031;29;19915;-73
2023/08/23 02:19:54;;;;;;;;;;;;;;;15.42;91.21;101839.97;4910158;29;20043;-71
2023/08/23 02:22:20;;;;;;;12.95;7.88;;;;;;;15.39;90.98;101841.34;4930540;29;19914;-70
2023/08/23 02:24:46;;;;;;;;;;;;;;;15.40;91.46;101839.44;4922847;29;20035;-71
2023/08/23 02:27:12;;;;;;;10.82;7.63;;;;;;;15.36;90.93;101831.06;4894173;29;20025;-74
2023/08/23 02:29:37;;;;;;;;;;;;;;;15.37;90.88;101831.88;4914848;29;20382;-72
2023/08/23 02:32:06;;;;;;;16.50;9.13;;;;;;;15.35;90.41;101831.34;4906791;29;19921;-72
2023/08/23 02:34:33;;;;;;;13.40;8.73;;;;;;;15.35;91.26;101828.66;4932307;29;20043;-71
2023/08/23 02:36:59;;;;;;;;;;;;;;;15.34;91.64;101827.84;4914606;28;20044;-73
2023/08/23 02:39:25;;;;;;;13.40;8.88;;;;;;;15.29;91.47;101825.97;4897424;29;19926;-74
2023/08/23 02:41:51;;;;;;;17.95;10.35;;;;;;;15.32;91.68;101830.03;4933571;29;20043;-71
2023/08/23 02:44:16;;;;;;;;;;;;;;;15.29;91.48;101827.84;4944884;29;20044;-72
2023/08/23 02:46:43;;;;;;;11.95;7.00;;;;;;;15.26;91.54;101821.13;4930020;29;20380;-72
2023/08/23 02:49:09;;;;;;;;;;;;;;;15.28;91.39;101818.97;4941884;29;20042;-71
2023/08/23 02:51:34;;;;;;;17.38;8.98;;;;;;;15.25;92.23;101833.00;4925906;29;20353;-72
2023/08/23 02:54:00;;;;;;;13.90;9.15;;;;;;;15.25;92.08;101832.22;4924897;29;20038;-73
2023/08/23 02:56:26;;;;;;;15.82;8.52;;;;;;;15.25;91.30;101835.72;4930434;29;20039;-72
2023/08/23 02:58:51;;;;;;;;;;;;;;;15.26;91.67;101837.31;4912807;29;20035;-73
2023/08/23 03:01:17;;;;;;;16.20;9.57;;;;;;;15.24;92.23;101819.78;4918264;29;19922;-72
2023/08/23 03:03:42;;;;;;;;;;;;;;;15.27;92.19;101821.94;4924072;29;20131;-72
2023/08/23 03:06:08;;;;;;;10.63;6.60;;;;;;;15.25;92.24;101822.22;4926031;29;19981;-70
2023/08/23 03:08:34;;;;;;;;;;;;;;;15.27;92.21;101833.53;4933307;29;20039;-73
2023/08/23 03:11:05;;;;;;;12.82;7.95;;;;;;;15.25;92.54;101830.31;4927366;29;19918;-71
2023/08/23 03:13:32;;;;;;;14.75;8.38;;;;;;;15.26;92.54;101833.81;4911642;29;20488;-72
2023/08/23 03:15:59;;;;;;;13.15;9.15;;;;;;;15.25;92.44;101829.50;4942615;29;20051;-72
2023/08/23 03:18:25;;;;;;;12.68;8.15;;;;;;;15.24;92.25;101828.72;4909165;29;20039;-70
2023/08/23 03:20:51;;;;;;;15.90;8.35;;;;;;;15.22;92.59;101830.84;4945755;28;20118;-70
2023/08/23 03:23:18;;;;;;;;;;;;;;;15.21;92.72;101823.03;4906394;29;20158;-72
2023/08/23 03:25:45;;;;;;;14.55;8.77;;;;;;;15.18;92.33;101829.00;4925163;29;19915;-72
2023/08/23 03:28:14;;;;;;;14.85;7.78;;;;;;;15.17;92.27;101822.78;4926874;29;20458;-72
2023/08/23 03:30:42;;;;;;;12.70;6.40;;;;;;;15.19;91.96;101823.31;4911858;29;20046;-73
2023/08/23 03:33:09;;;;;;;14.80;8.98;;;;;;;15.18;92.44;101829.00;4908077;29;20043;-71
2023/08/23 03:35:35;;;;;;;14.07;8.65;;;;;;;15.19;92.33;101830.59;4895788;29;20056;-72
2023/08/23 03:38:03;;;;;;;13.27;8.52;;;;;;;15.21;92.53;101836.53;4925312;29;20050;-72
2023/08/23 03:40:37;;;;;;;10.15;7.43;;;;;;;15.23;92.52;101843.25;4923912;29;20509;-72
2023/08/23 03:43:04;;;;;;;13.27;8.70;;;;;;;15.22;92.02;101830.84;4923609;29;20063;-72
2023/08/23 03:45:30;;;;;;;13.32;7.78;;;;;;;15.20;91.35;101833.03;4922074;29;20050;-72
2023/08/23 03:47:56;;;;;;;13.38;8.15;;;;;;;15.20;92.01;101838.41;4901544;29;20032;-71
2023/08/23 03:50:22;;;;;;;15.32;8.93;;;;;;;15.16;92.37;101831.94;4906419;29;20121;-72
2023/08/23 03:52:48;;;;;;;;;;;;;;;15.14;92.33;101830.59;4920853;29;20156;-72
2023/08/23 03:55:13;;;;;;;12.90;8.10;;;;;;;15.10;92.12;101837.63;4931166;29;19970;-70
2023/08/23 03:57:42;;;;;;;14.10;8.20;;;;;;;15.05;92.26;101840.34;4923246;29;20044;-72
2023/08/23 04:00:08;;;;;;;12.38;8.18;;;;;;;15.00;92.34;101841.97;4899377;29;20075;-72
2023/08/23 04:02:42;;;;;;;11.27;7.28;;;;;;;14.99;92.48;101847.63;4944329;29;20046;-73
2023/08/23 04:05:11;;;;;;;12.82;8.43;;;;;;;14.96;92.58;101845.47;4915420;29;20149;-70
2023/08/23 04:07:39;;;;;;;14.02;7.47;;;;;;;14.95;92.68;101846.56;4922945;29;20039;-72
2023/08/23 04:10:06;;;;;;;13.43;8.68;;;;;;;14.92;93.11;101844.41;4890456;29;20031;-72
2023/08/23 04:12:31;;;;;;;13.70;8.18;;;;;;;14.91;93.13;101849.00;4922185;29;20050;-72
2023/08/23 04:14:57;;;;;;;8.93;6.38;;;;;;;14.89;93.13;101856.53;4927808;29;20038;-71
2023/08/23 04:17:24;;;;;;;11.52;7.55;;;;;;;14.86;93.34;101843.59;4920996;29;20130;-72
2023/08/23 04:19:50;;;;;;;10.23;6.20;;;;;;;14.85;93.00;101842.00;4925844;29;20750;-73
2023/08/23 04:22:15;;;;;;;;;;;;;;;14.90;94.46;101850.09;4896141;29;20145;-71
2023/08/23 04:24:41;;;;;;;12.48;6.93;;;;;;;14.88;94.11;101852.22;4892964;29;20376;-71
2023/08/23 04:27:07;;;;;;;13.13;7.18;;;;;;;14.90;93.54;101860.03;4924222;29;20062;-73
2023/08/23 04:29:34;;;;;;;16.25;6.85;;;;;;;14.89;93.75;101848.44;4921289;29;20036;-73
2023/08/23 04:31:59;;;;;;;13.32;7.75;;;;;;;14.88;93.99;101849.53;4911155;29;20032;-74
2023/08/23 04:34:29;;;;;;;10.85;6.50;;;;;;;14.90;94.48;101850.09;4913179;29;20071;-72
2023/08/23 04:36:55;;;;;;;12.15;7.13;;;;;;;14.91;94.13;101857.09;4917448;29;20093;-72
2023/08/23 04:39:21;;;;;;;;;;;;;;;14.96;94.78;101859.75;4913541;29;20047;-72
2023/08/23 04:41:46;;;;;;;12.82;7.55;;;;;;;14.95;94.55;101860.84;4907127;29;19923;-72
2023/08/23 04:44:12;;;;;;;;;;;;;;;15.01;94.94;101850.88;4915810;29;20532;-72
2023/08/23 04:46:38;;;;;;;8.77;5.45;;;;;;;15.01;94.96;101857.06;4912623;29;19914;-72
2023/08/23 04:49:05;;;;;;;11.43;7.22;;;;;;;15.05;95.21;101851.13;4914340;29;20042;-72
2023/08/23 04:51:30;;;;;;;;;;;;;;;15.11;95.55;101852.75;4907874;29;20118;-70
2023/08/23 04:53:56;;;;;;;17.95;8.38;;;;;;;15.15;96.30;101849.22;4914090;28;19993;-74
2023/08/23 04:56:22;;;;;;;;;;;;;;;15.21;96.10;101850.00;4907421;29;20079;-70
2023/08/23 04:58:49;;;;;;;12.02;7.20;;;;;;;15.25;96.28;101851.91;4908849;29;19922;-70
2023/08/23 05:01:16;;;;;;;11.80;8.02;;;;;;;15.29;96.81;101846.75;4897922;29;20054;-71
2023/08/23 05:03:43;;;;;;;11.15;7.13;;;;;;;15.34;96.59;101849.44;4930398;29;20765;-71
2023/08/23 05:06:09;;;;;;;;;;;;;;;15.40;96.62;101837.56;4919724;29;20702;-73
2023/08/23 05:08:35;;;;;;;14.07;8.00;;;;;;;15.45;97.10;101842.13;4909601;29;19925;-72
2023/08/23 05:11:04;;;;;;;14.85;7.20;;;;;;;15.45;96.95;101852.94;4923451;29;20043;-72
2023/08/23 05:13:30;;;;;;;;;;;;;;;15.48;96.95;101849.66;4928639;29;20047;-72
2023/08/23 05:15:57;;;;;;;14.05;8.60;;;;;;;15.47;97.13;101851.56;4884677;29;20050;-73
2023/08/23 05:18:22;;;;;;;;;;;;;;;15.51;97.14;101849.94;4905256;29;20153;-71
2023/08/23 05:20:57;;;;;;;15.32;8.32;;;;;;;15.53;96.76;101847.78;4904416;29;19989;-71
2023/08/23 05:23:23;;;;;;;11.98;8.90;;;;;;;15.53;96.97;101847.78;4923314;29;20389;-72
2023/08/23 05:25:50;;;;;;;;;;;;;;;15.62;97.28;101855.31;4900447;29;20043;-72
2023/08/23 05:28:20;;;;;;;16.33;9.15;;;;;;;15.62;97.42;101855.31;4921420;29;19922;-70
2023/08/23 05:30:49;;;;;;;16.27;7.90;;;;;;;15.67;97.38;101858.00;4922662;29;20051;-71
2023/08/23 05:33:18;;;;;;;18.08;10.30;;;;;;;15.73;97.69;101860.41;4920786;29;20035;-73
2023/08/23 05:35:45;;;;;;;19.85;9.05;;;;;;;15.79;97.74;101850.41;4914062;29;20042;-71
2023/08/23 05:38:12;;;;;;;16.80;10.10;;;;;;;15.88;97.70;101853.31;4927626;29;20067;-73
2023/08/23 05:40:39;;;;;;;15.27;8.95;;;;;;;15.93;98.04;101858.69;4915326;29;20409;-71
2023/08/23 05:43:05;;;;;;;14.98;9.27;;;;;;;15.97;97.76;101844.34;4898016;29;20462;-70
2023/08/23 05:45:31;;;;;;;16.80;8.63;;;;;;;16.04;98.00;101860.25;4920401;29;20047;-73
2023/08/23 05:47:58;;;;;;;;;;;;;;;16.10;97.96;101861.84;4910907;29;20040;-72
2023/08/23 05:50:24;;;;;;;14.00;9.32;;;;;;;16.14;98.11;101857.50;4909818;29;20303;-71
2023/08/23 05:52:50;;;;;;;14.23;7.22;;;;;;;16.20;97.83;101872.59;4908066;29;20457;-71
2023/08/23 05:55:16;;;;;;;;;;;;;;;16.29;98.13;101872.81;4924646;29;20999;-73
2023/08/23 05:57:42;;;;;;;12.45;8.57;;;;;;;16.32;98.05;101869.53;4925261;29;20724;-71
2023/08/23 06:00:09;;;;;;;15.75;8.38;;;;;;;16.38;98.13;101871.09;4911797;29;20394;-72
2023/08/23 06:02:43;;;;;;;15.75;8.27;;;;;;;16.45;97.87;101874.31;4929748;29;20109;-71
2023/08/23 06:05:11;;;;;;;14.35;8.85;;;;;;;16.50;97.94;101874.28;4910836;29;20253;-73
2023/08/23 06:07:38;;;;;;;12.77;8.20;;;;;;;16.58;97.74;101876.38;4929646;29;20130;-71
2023/08/23 06:10:04;;;;;;;14.40;7.47;;;;;;;16.63;97.62;101873.63;4928943;29;20450;-71
2023/08/23 06:12:30;;;;;;;13.23;7.00;;;;;;;16.70;97.31;101876.03;4925958;29;20039;-74
2023/08/23 06:14:56;;;;;;;12.40;6.43;;;;;;;16.77;96.57;101876.53;4938183;29;20166;-72
2023/08/23 06:17:21;;;;;;;12.00;5.65;;;;;;;16.85;96.19;101877.81;4911438;29;21013;-73
2023/08/23 06:19:47;;;;;;;12.40;5.90;;;;;;;16.92;95.95;101872.88;4928208;29;20046;-72
2023/08/23 06:22:13;;;;;;;9.68;5.80;;;;;;;16.99;95.37;101886.06;4945756;29;20027;-71
2023/08/23 06:24:39;;;;;;;7.35;4.65;;;;;;;17.08;94.91;101879.78;4922671;29;20502;-73
2023/08/23 06:27:04;;;;;;;9.20;5.18;;;;;;;17.18;94.82;101871.53;4898286;29;20042;-72
2023/08/23 06:29:30;;;;;;;7.25;4.38;;;;;;;17.22;95.05;101876.41;4910003;29;20039;-73
2023/08/23 06:31:55;;;;;;;7.15;4.22;;;;;;;17.31;93.52;101877.38;4911420;29;20042;-71
2023/08/23 06:34:21;;;;;;;7.80;4.15;;;;;;;17.44;92.82;101877.50;4925848;29;20046;-70
2023/08/23 06:36:47;;;;;;;9.82;4.63;;;;;;;17.58;92.45;101884.94;4929140;29;20055;-72
2023/08/23 06:39:13;;;;;;;7.25;4.90;;;;;;;17.68;91.60;101874.78;4927594;29;20424;-72
2023/08/23 06:41:39;;;;;;;5.70;3.67;;;;;;;17.73;91.36;101876.63;4926421;29;20074;-70
2023/08/23 06:44:04;;;;;;;6.70;3.92;;;;;;;17.77;92.30;101885.00;4926046;29;20066;-75
2023/08/23 06:46:30;;;;;;;6.95;3.28;;;;;;;17.77;91.74;101879.59;4908763;29;20043;-70
2023/08/23 06:48:56;;;;;;;7.00;3.40;;;;;;;17.82;91.93;101888.47;4912908;29;20142;-72
2023/08/23 06:51:22;;;;;;;7.22;3.90;;;;;;;17.85;91.58;101878.94;4912509;29;20066;-71
2023/08/23 06:53:50;;;;;;;5.93;3.03;;;;;;;17.87;90.38;101884.88;4929183;29;20035;-74
2023/08/23 06:56:16;;;;;;;7.07;3.63;;;;;;;17.95;90.45;101887.75;4905346;29;20107;-71
2023/08/23 06:58:42;;;;;;;7.57;3.08;;;;;;;18.08;91.03;101877.25;4886289;29;20802;-73
2023/08/23 07:01:14;;;;;;;6.55;3.22;;;;;;;18.12;88.55;101881.81;4905538;29;20126;-73
2023/08/23 07:03:43;;;;;;;8.73;2.85;;;;;;;18.16;88.80;101882.06;4908674;29;20040;-71
2023/08/23 07:06:12;;;;;;;6.60;2.95;;;;;;;18.13;89.02;101875.28;4944630;29;20047;-72
2023/08/23 07:08:37;;;;;;;6.53;2.95;;;;;;;18.08;87.64;101883.50;4907593;29;20498;-71
2023/08/23 07:11:03;;;;;;;5.32;2.58;;;;;;;18.05;87.34;101878.66;4927608;29;20070;-73
2023/08/23 07:13:29;;;;;;;7.53;2.65;;;;;;;18.00;88.55;101879.53;4922298;29;20146;-72
2023/08/23 07:15:54;;;;;;;4.55;2.40;;;;;;;17.96;89.98;101875.00;4912860;29;20051;-74
2023/08/23 07:18:20;;;;;;;4.75;2.60;;;;;;;17.94;89.17;101888.03;4922168;29;20035;-72
2023/08/23 07:20:46;;;;;;;5.20;2.30;;;;;;;18.08;88.37;101885.41;4915793;29;20036;-70
2023/08/23 07:23:11;;;;;;;7.40;2.50;;;;;;;18.17;88.25;101892.59;4893487;29;20047;-71
2023/08/23 07:25:37;;;;;;;5.20;2.30;;;;;;;18.28;87.80;101893.25;4940725;29;20062;-74
2023/08/23 07:28:04;;;;;;;4.93;2.30;;;;;;;18.40;87.28;101890.09;4928012;29;20043;-72
2023/08/23 07:30:30;;;;;;;7.13;2.50;;;;;;;18.55;88.28;101893.38;4893710;29;20040;-75
2023/08/23 07:32:56;;;;;;;5.68;2.30;;;;;;;18.68;87.20;101897.28;4911681;29;20097;-73
2023/08/23 07:35:22;;;;;;;6.13;2.63;;;;;;;18.79;86.52;101887.88;4902466;29;20032;-72
2023/08/23 07:37:48;;;;;;;7.32;2.45;;;;;;;18.88;85.37;101890.69;4907619;29;20036;-72
2023/08/23 07:40:14;;;;;;;5.18;2.50;;;;;;;19.01;85.06;101894.56;4883762;29;20075;-75
2023/08/23 07:42:41;;;;;;;5.10;2.28;;;;;;;18.96;84.94;101895.44;4909318;29;20643;-71
2023/08/23 07:45:08;;;;;;;3.40;2.20;;;;;;;18.99;85.10;101896.78;4890781;29;20425;-73
2023/08/23 07:47:34;;;;;;;4.60;2.92;;;;;;;19.12;85.15;101896.00;4905519;29;20611;-74
2023/08/23 07:50:00;;;;;;;5.03;2.50;;;;;;;19.27;84.21;101906.56;4902498;29;20421;-73
2023/08/23 07:52:25;;;;;;;5.93;2.35;;;;;;;19.42;82.99;101904.66;4936274;29;20031;-71
2023/08/23 07:54:51;;;;;;;5.70;2.10;;;;;;;19.50;82.42;101909.41;4910531;29;20555;-73
2023/08/23 07:57:17;;;;;;;5.00;2.45;;;;;;;19.66;81.24;101910.75;4923531;29;20081;-71
2023/08/23 07:59:42;;;;;;;4.03;2.45;;;;;;;19.83;80.78;101910.94;4918151;29;20134;-73
2023/08/23 08:02:08;;;;;;;4.68;2.50;;;;;;;19.95;79.76;101906.91;4930978;29;20047;-71
2023/08/23 08:04:34;;;;;;;4.13;2.40;;;;;;;20.08;78.72;101911.50;4914368;29;20119;-71
2023/08/23 08:07:00;;;;;;;4.10;2.30;;;;;;;20.18;78.12;101922.16;4924336;29;20122;-72
2023/08/23 08:09:25;;;;;;;6.70;2.75;;;;;;;20.33;78.56;101910.16;4913538;29;20035;-72
2023/08/23 08:11:51;;;;;;;4.40;1.80;;;;;;;20.37;79.04;101911.94;4927199;29;20027;-73
2023/08/23 08:14:17;;;;;;;5.60;2.00;;;;;;;20.48;78.10;101917.97;4924805;29;20042;-72
2023/08/23 08:16:43;;;;;;;3.13;2.35;;;;;;;20.33;78.93;101916.38;4924164;29;20031;-71
2023/08/23 08:19:09;;;;;;;2.65;2.13;;;;;;;20.45;79.08;101922.09;4923618;29;20031;-72
2023/08/23 08:21:36;;;;;;;5.80;2.83;;;;;;;20.50;76.54;101928.56;4924779;29;20146;-72
2023/08/23 08:24:02;;;;;;;4.85;2.60;;;;;;;20.47;75.47;101931.91;4927827;29;20035;-72
2023/08/23 08:26:28;;;;;;;3.92;3.10;;;;;;;20.28;75.51;101932.81;4924939;29;20110;-71
2023/08/23 08:28:54;;;;;;;3.63;2.30;;;;;;;20.32;76.22;101938.44;4927176;29;20524;-72
2023/08/23 08:31:21;;;;;;;4.85;3.03;;;;;;;20.47;74.52;101937.34;4914483;29;20409;-73
2023/08/23 08:33:47;;;;;;;4.93;2.60;;;;;;;20.52;75.06;101937.19;4906832;29;20038;-72
2023/08/23 08:36:13;;;;;;;4.55;2.15;;;;;;;20.61;74.83;101930.72;4927055;29;20062;-71
2023/08/23 08:38:39;;;;;;;4.13;2.08;;;;;;;20.63;76.00;101927.69;4935835;29;20397;-72
2023/08/23 08:41:05;;;;;;;3.03;1.98;;;;;;;20.65;75.27;101939.88;4899433;29;20040;-72
2023/08/23 08:43:31;;;;;;;5.45;2.38;;;;;;;20.73;74.52;101935.63;4903175;29;20046;-70
2023/08/23 08:45:57;;;;;;;4.07;1.98;;;;;;;20.72;72.43;101931.28;4910589;29;20551;-71
2023/08/23 08:48:23;;;;;;;4.50;2.72;;;;;;;20.75;72.22;101936.13;4923318;29;20035;-71
2023/08/23 08:50:49;;;;;;;3.42;2.25;;;;;;;20.83;72.53;101932.66;4936597;29;20031;-73
2023/08/23 08:53:17;;;;;;;4.07;2.30;;;;;;;20.99;74.60;101942.03;4937611;29;20127;-70
2023/08/23 08:55:45;;;;;;;5.28;2.33;;;;;;;21.12;75.56;101934.09;4920644;29;20159;-71
2023/08/23 08:58:15;;;;;;;4.30;2.20;;;;;;;21.13;73.30;101936.50;4924395;29;20043;-72
2023/08/23 09:00:42;;;;;;;5.07;2.50;;;;;;;21.16;73.33;101935.09;4904587;29;20047;-72
2023/08/23 09:03:09;;;;;;;7.10;2.00;;;;;;;21.05;74.50;101936.47;4907984;29;20527;-71
2023/08/23 09:05:35;;;;;;;3.47;2.03;;;;;;;21.05;74.27;101936.47;4911800;29;20054;-72
2023/08/23 09:08:01;;;;;;;2.25;1.40;;;;;;;21.02;70.02;101929.72;4927606;29;20133;-71
2023/08/23 09:10:27;;;;;;;3.63;1.95;;;;;;;21.07;70.54;101932.34;4917739;29;20040;-72
2023/08/23 09:12:53;;;;;;;4.05;1.20;;;;;;;21.23;68.86;101940.91;4922299;29;20039;-71
2023/08/23 09:15:23;;;;;;;4.55;1.50;;;;;;;21.33;70.90;101946.09;4918819;29;20039;-72
2023/08/23 09:17:52;;;;;;;3.03;1.27;;;;;;;21.33;72.29;101948.81;4937111;29;20126;-71
2023/08/23 09:20:20;;;;;;;3.28;1.50;;;;;;;21.08;69.12;101938.59;4909610;29;20509;-73
2023/08/23 09:22:55;;;;;;;2.95;1.60;;;;;;;21.13;70.34;101941.16;4911251;29;20041;-74
2023/08/23 09:25:23;;;;;;;3.10;1.63;;;;;;;21.24;70.00;101947.94;4906266;29;20042;-72
2023/08/23 09:27:49;;;;;;;4.95;1.92;;;;;;;21.18;71.17;101941.03;4924438;29;20156;-74
2023/08/23 09:30:15;;;;;;;3.00;1.77;;;;;;;21.28;71.09;101938.09;4925699;29;20044;-72
2023/08/23 09:32:42;;;;;;;2.75;1.50;;;;;;;21.46;70.23;101945.19;4908363;29;20043;-72
2023/08/23 09:35:10;;;;;;;2.67;1.52;;;;;;;21.54;71.88;101938.22;4927103;29;20040;-74
2023/08/23 09:37:38;;;;;;;2.83;1.55;;;;;;;21.49;69.86;101939.13;4913930;29;20039;-73
2023/08/23 09:40:04;;;;;;;2.80;1.38;;;;;;;21.60;69.51;101938.84;4903396;29;20117;-73
2023/08/23 09:42:33;;;;;;;3.85;1.88;;;;;;;21.65;67.58;101938.72;4927018;28;20468;-73
2023/08/23 09:45:01;;;;;;;3.50;1.25;;;;;;;21.70;67.62;101927.66;4900167;29;20031;-74
2023/08/23 09:47:30;;;;;;;4.70;1.60;;;;;;;21.72;66.82;101922.69;4892192;29;20040;-72
2023/08/23 09:49:59;;;;;;;3.15;1.60;;;;;;;21.90;65.37;101927.06;4905761;29;20039;-72
2023/08/23 09:52:30;;;;;;;3.25;1.60;;;;;;;21.96;64.27;101922.28;4910204;29;20054;-71
2023/08/23 09:55:11;;;;;;;4.75;1.20;;;;;;;22.07;65.79;101918.91;4923636;29;20488;-73
2023/08/23 09:57:40;;;;;;;3.60;1.65;;;;;;;22.17;65.92;101925.22;4926665;29;20159;-72
2023/08/23 10:00:07;;;;;;;3.72;1.52;;;;;;;22.24;66.40;101925.56;4941480;29;20047;-71
2023/08/23 10:02:34;;;;;;;3.30;1.75;;;;;;;22.39;66.74;101922.34;4927641;29;20961;-73
2023/08/23 10:05:04;;;;;;;2.47;1.45;;;;;;;22.41;65.31;101922.03;4937600;29;20039;-73
2023/08/23 10:07:34;;;;;;;2.92;1.50;;;;;;;22.47;68.57;101924.28;4918404;29;20031;-73
2023/08/23 10:09:59;;;;;;;5.15;1.40;;;;;;;22.46;68.31;101919.13;4924339;29;20043;-72
2023/08/23 10:12:26;;;;;;;2.83;1.95;;;;;;;22.52;66.90;101915.13;4908383;29;20035;-72
2023/08/23 10:14:54;;;;;;;1.85;1.02;;;;;;;22.57;68.21;101913.03;4922460;29;20126;-71
2023/08/23 10:17:21;;;;;;;3.40;1.55;;;;;;;22.64;66.36;101911.75;4903602;29;20701;-75
2023/08/23 10:19:47;;;;;;;2.58;1.40;;;;;;;22.77;66.80;101918.97;4926637;29;20035;-73
2023/08/23 10:22:13;;;;;;;3.25;1.10;;;;;;;22.83;64.24;101913.00;4912566;29;20051;-73
2023/08/23 10:24:40;;;;;;;3.42;1.42;;;;;;;22.83;64.51;101906.75;4905224;29;20126;-71
2023/08/23 10:27:09;;;;;;;3.22;1.35;;;;;;;22.84;62.64;101902.88;4923589;29;20028;-74
2023/08/23 10:29:39;;;;;;;5.70;1.27;;;;;;;22.84;60.81;101891.97;4915748;29;20039;-72
2023/08/23 10:32:09;;;;;;;3.67;1.35;;;;;;;22.94;62.91;101897.09;4927946;29;20027;-72
2023/08/23 10:34:37;;;;;;;3.95;1.67;;;;;;;22.97;64.74;101888.25;4937175;29;20039;-71
2023/08/23 10:37:13;;;;;;;2.15;0.98;;;;;;;22.98;63.48;101892.59;4912514;29;20062;-72
2023/08/23 10:39:46;;;;;;;2.38;1.50;;;;;;;23.02;61.45;101896.25;4918889;29;20114;-73
2023/08/23 10:42:12;;;;;;;3.33;1.45;;;;;;;23.05;63.62;101894.81;4921890;29;20027;-71
2023/08/23 10:44:49;;;;;;;2.55;1.50;;;;;;;23.07;60.52;101903.50;4906105;29;20071;-71
2023/08/23 10:47:16;;;;;;;4.78;1.52;;;;;;;23.10;60.74;101902.84;4926330;29;20043;-74
2023/08/23 10:49:42;;;;;;;3.33;1.55;;;;;;;23.14;61.02;101895.59;4936695;28;20123;-74
2023/08/23 10:52:09;;;;;;;4.50;1.45;;;;;;;23.02;60.52;101888.06;4941917;29;20034;-73
2023/08/23 10:54:36;;;;;;;2.03;1.38;;;;;;;23.08;60.44;101886.75;4928550;29;20090;-74
2023/08/23 10:57:02;;;;;;;4.05;1.05;;;;;;;23.24;61.08;101886.25;4927806;29;20035;-72
2023/08/23 10:59:28;;;;;;;2.40;1.50;;;;;;;23.35;59.84;101882.00;4940235;29;20035;-72
2023/08/23 11:01:55;;;;;;;1.95;1.10;;;;;;;23.48;61.55;101872.78;4923696;29;20056;-71
2023/08/23 11:04:21;;;;;;;3.92;1.30;;;;;;;23.54;60.60;101878.84;4896446;29;20049;-71
2023/08/23 11:06:47;;;;;;;3.63;1.15;;;;;;;23.65;62.73;101874.66;4918004;29;20119;-74
2023/08/23 11:09:15;;;;;;;2.40;1.00;;;;;;;23.78;61.37;101883.75;4899234;29;20146;-71
2023/08/23 11:11:41;;;;;;;1.83;1.25;;;;;;;23.76;58.04;101881.31;4905028;29;20035;-73
2023/08/23 11:14:07;;;;;;;2.60;1.10;;;;;;;23.79;57.30;101879.88;4921875;29;20611;-73
2023/08/23 11:16:33;;;;;;;3.17;1.30;;;;;;;23.84;59.14;101874.19;4936783;29;20035;-74
2023/08/23 11:19:02;;;;;;;1.40;1.00;;;;;;;23.49;56.81;101877.09;4926166;29;20097;-73
2023/08/23 11:21:29;;;;;;;4.65;1.45;;;;;;;23.36;58.45;101867.19;4924781;29;20531;-73
2023/08/23 11:23:55;;;;;;;2.05;1.00;;;;;;;23.33;58.61;101881.53;4917038;29;20043;-73
2023/08/23 11:26:21;;;;;;;2.60;1.23;;;;;;;23.23;59.53;101885.41;4909421;29;20519;-72
2023/08/23 11:28:47;;;;;;;2.05;1.10;;;;;;;23.33;58.82;101884.28;4922926;28;20493;-74